Terminal Aerodrome Forecast
Issued by NWS

Home | Current Version | Previous Version | Text Only | Print | Product List | Glossary On
Versions: 1 2 3 4 5 6 7 8 9 10 11 12
000
FTUS45 KFGZ 200520
TAFPGA
TAF
KPGA 200520Z 2006/2106 VRB06KT P6SM FEW250
     FM202000 21010G20KT P6SM FEW090
     FM210300 20010KT P6SM SKC=

USA.gov is the U.S. government's official web portal to all federal, state and local government web resources and services.